Time;durP1;ratioP1;P1;durP2;ratioP2;P2;SDS_P1;SDS_P2;PMS_P1;PMS_P2;Temp;Humidity;BMP_temperature;BMP_pressure;BME280_temperature;BME280_humidity;BME280_pressure;Samples;Min_cycle;Max_cycle;Signal;HPM_P1;HPM_P2
2022/07/01 00:01:47;;;;;;;3.20;2.90;;;28.30;68.00;;;;;;5047519;28;20461;-78
2022/07/01 00:04:17;;;;;;;3.50;2.80;;;28.30;68.20;;;;;;5047563;28;20870;-77
2022/07/01 00:06:45;;;;;;;4.13;2.70;;;28.30;68.20;;;;;;5044999;28;20462;-78
2022/07/01 00:09:14;;;;;;;2.97;2.67;;;28.30;68.10;;;;;;5041400;28;20949;-78
2022/07/01 00:11:42;;;;;;;3.73;2.43;;;28.20;68.00;;;;;;5044511;28;20463;-77
2022/07/01 00:14:10;;;;;;;2.37;2.17;;;28.20;68.10;;;;;;5041683;28;20474;-78
2022/07/01 00:16:38;;;;;;;2.63;2.43;;;28.20;68.20;;;;;;5048108;28;20832;-78
2022/07/01 00:19:07;;;;;;;3.60;2.47;;;28.20;68.10;;;;;;5045401;28;20480;-77
2022/07/01 00:21:37;;;;;;;3.00;2.27;;;28.20;68.10;;;;;;5049658;28;20442;-79
2022/07/01 00:24:06;;;;;;;3.40;3.10;;;28.20;68.00;;;;;;5026513;28;20472;-80
2022/07/01 00:26:34;;;;;;;2.90;1.90;;;28.20;68.10;;;;;;5045340;28;20460;-78
2022/07/01 00:29:03;;;;;;;2.67;2.23;;;28.20;68.20;;;;;;5047802;28;20528;-78
2022/07/01 00:31:31;;;;;;;2.80;2.40;;;28.20;68.10;;;;;;5038256;28;20484;-78
2022/07/01 00:33:59;;;;;;;3.13;2.57;;;28.20;68.10;;;;;;5044289;28;20453;-79
2022/07/01 00:36:27;;;;;;;5.27;2.37;;;28.20;68.10;;;;;;5034422;28;20564;-79
2022/07/01 00:38:59;;;;;;;3.07;2.33;;;28.20;68.10;;;;;;5036839;28;20465;-81
2022/07/01 00:41:28;;;;;;;15.33;3.23;;;28.20;68.10;;;;;;5050224;28;20952;-81
2022/07/01 00:43:57;;;;;;;2.90;2.40;;;28.20;68.20;;;;;;5036720;28;20533;-78
2022/07/01 00:46:25;;;;;;;2.17;1.93;;;28.20;68.10;;;;;;5051022;28;20445;-78
2022/07/01 00:48:56;;;;;;;2.50;2.27;;;28.20;68.20;;;;;;5021900;28;20545;-80
2022/07/01 00:51:24;;;;;;;3.30;2.30;;;28.20;68.10;;;;;;5029024;28;20448;-79
2022/07/01 00:53:53;;;;;;;2.20;2.00;;;28.20;68.10;;;;;;5034754;28;20466;-78
2022/07/01 00:56:23;;;;;;;2.30;1.93;;;28.10;68.10;;;;;;5046357;28;20926;-78
2022/07/01 00:58:51;;;;;;;2.90;2.67;;;28.20;68.10;;;;;;5051467;28;20535;-78
2022/07/01 01:01:20;;;;;;;2.07;1.87;;;28.10;68.10;;;;;;5046954;28;21017;-78
2022/07/01 01:03:49;;;;;;;2.13;1.93;;;28.10;68.10;;;;;;5037515;28;20476;-77
2022/07/01 01:06:18;;;;;;;2.53;2.20;;;28.10;68.20;;;;;;5024695;28;20557;-80
2022/07/01 01:08:48;;;;;;;2.50;2.00;;;28.10;68.20;;;;;;5044252;28;20449;-77
2022/07/01 01:11:17;;;;;;;3.10;2.10;;;28.10;68.30;;;;;;5045825;28;20961;-77
2022/07/01 01:13:47;;;;;;;2.10;1.90;;;28.10;68.30;;;;;;5037581;28;20460;-79
2022/07/01 01:16:20;;;;;;;2.43;2.23;;;28.10;68.30;;;;;;5041643;28;20554;-78
2022/07/01 01:18:48;;;;;;;2.70;2.10;;;28.10;68.30;;;;;;5037545;28;20451;-77
2022/07/01 01:21:18;;;;;;;1.97;1.73;;;28.10;68.40;;;;;;5048315;28;20471;-77
2022/07/01 01:23:46;;;;;;;2.97;1.83;;;28.10;68.30;;;;;;5037179;28;20469;-83
2022/07/01 01:26:19;;;;;;;2.77;1.97;;;28.10;68.20;;;;;;5035628;28;20460;-80
2022/07/01 01:28:49;;;;;;;2.10;1.90;;;28.10;68.20;;;;;;5048886;28;20467;-77
2022/07/01 01:31:18;;;;;;;1.97;1.83;;;28.10;68.20;;;;;;5044996;28;20479;-77
2022/07/01 01:33:46;;;;;;;2.70;1.80;;;28.10;68.20;;;;;;5042992;28;20488;-77
2022/07/01 01:36:14;;;;;;;2.67;2.23;;;28.10;68.20;;;;;;5039785;28;20475;-77
2022/07/01 01:38:44;;;;;;;2.63;2.03;;;28.10;68.10;;;;;;5028560;28;20461;-78
2022/07/01 01:41:12;;;;;;;3.20;2.07;;;28.10;68.20;;;;;;5048588;28;20569;-78
2022/07/01 01:43:40;;;;;;;1.80;1.50;;;28.10;68.10;;;;;;5035971;28;20559;-78
2022/07/01 01:46:08;;;;;;;1.97;1.70;;;28.10;68.20;;;;;;5044759;28;20558;-78
2022/07/01 01:48:36;;;;;;;2.03;1.47;;;28.10;68.20;;;;;;5043252;28;20452;-78
2022/07/01 01:51:08;;;;;;;2.10;1.90;;;28.10;68.20;;;;;;5043451;28;20543;-78
2022/07/01 01:53:36;;;;;;;1.87;1.47;;;28.10;68.20;;;;;;5049096;28;20449;-77
2022/07/01 01:56:09;;;;;;;2.17;1.67;;;28.10;68.10;;;;;;5040030;28;20461;-80
2022/07/01 01:58:42;;;;;;;2.20;1.90;;;28.10;68.30;;;;;;5044217;28;20537;-78
2022/07/01 02:01:11;;;;;;;4.03;1.70;;;28.10;68.20;;;;;;5032875;28;20545;-78
2022/07/01 02:03:40;;;;;;;3.33;1.90;;;28.10;68.30;;;;;;5038740;28;20527;-78
2022/07/01 02:06:10;;;;;;;3.20;2.00;;;28.10;68.40;;;;;;5044596;28;20456;-77
2022/07/01 02:08:38;;;;;;;2.30;2.10;;;28.10;68.30;;;;;;5039008;28;20562;-77
2022/07/01 02:11:11;;;;;;;2.20;1.90;;;28.00;68.40;;;;;;5033198;28;20496;-78
2022/07/01 02:13:39;;;;;;;2.47;1.80;;;28.00;68.30;;;;;;5043921;28;20584;-78
2022/07/01 02:16:10;;;;;;;1.97;1.67;;;28.00;68.30;;;;;;5035365;28;21025;-81
2022/07/01 02:18:38;;;;;;;2.67;1.90;;;28.00;68.20;;;;;;5040788;28;20542;-78
2022/07/01 02:21:10;;;;;;;4.83;2.07;;;28.00;68.20;;;;;;5037410;28;20520;-79
2022/07/01 02:23:38;;;;;;;2.30;1.83;;;28.00;68.20;;;;;;5040907;28;20928;-78
2022/07/01 02:26:10;;;;;;;1.70;1.60;;;28.00;68.20;;;;;;5045138;28;20856;-78
2022/07/01 02:28:39;;;;;;;2.37;1.60;;;28.00;68.30;;;;;;5048552;28;20453;-78
2022/07/01 02:31:10;;;;;;;2.00;1.77;;;28.00;68.30;;;;;;5039118;28;20456;-77
2022/07/01 02:33:38;;;;;;;2.20;2.00;;;28.00;68.30;;;;;;5049698;28;20492;-79
2022/07/01 02:36:09;;;;;;;2.20;2.00;;;28.00;68.40;;;;;;5041360;28;20498;-82
2022/07/01 02:38:37;;;;;;;1.70;1.50;;;28.00;68.30;;;;;;5021213;28;20519;-78
2022/07/01 02:41:10;;;;;;;1.73;1.63;;;28.00;68.30;;;;;;5030002;28;21040;-79
2022/07/01 02:43:38;;;;;;;1.77;1.50;;;28.00;68.50;;;;;;5036590;28;20461;-79
2022/07/01 02:46:09;;;;;;;1.60;1.47;;;28.00;68.50;;;;;;5043656;28;20532;-80
2022/07/01 02:48:37;;;;;;;2.20;1.60;;;28.00;68.40;;;;;;5045487;28;20473;-78
2022/07/01 02:51:08;;;;;;;1.70;1.60;;;28.00;68.30;;;;;;5039218;28;20490;-78
2022/07/01 02:53:37;;;;;;;2.80;1.77;;;28.00;68.30;;;;;;5048990;28;20459;-79
2022/07/01 02:56:12;;;;;;;1.80;1.70;;;28.00;68.30;;;;;;5048950;28;20535;-78
2022/07/01 02:58:41;;;;;;;2.43;1.40;;;28.00;68.30;;;;;;5025345;28;20841;-79
2022/07/01 03:01:09;;;;;;;1.50;1.30;;;28.00;68.30;;;;;;5048619;28;20574;-78
2022/07/01 03:03:37;;;;;;;1.93;1.40;;;28.00;68.30;;;;;;5046532;28;20847;-78
2022/07/01 03:06:08;;;;;;;3.20;1.83;;;28.00;68.30;;;;;;5041466;28;20471;-78
2022/07/01 03:08:36;;;;;;;1.80;1.60;;;28.00;68.30;;;;;;5040219;28;20436;-78
2022/07/01 03:11:08;;;;;;;1.70;1.53;;;28.00;68.20;;;;;;5043552;28;20559;-78
2022/07/01 03:13:44;;;;;;;1.83;1.50;;;28.00;68.20;;;;;;5050781;28;20443;-78
2022/07/01 03:16:12;;;;;;;1.90;1.40;;;28.00;68.20;;;;;;5044682;28;20487;-79
2022/07/01 03:18:41;;;;;;;2.37;1.70;;;28.00;68.20;;;;;;5043891;28;20532;-78
2022/07/01 03:21:09;;;;;;;2.20;1.50;;;28.00;68.20;;;;;;5030934;28;20504;-79
2022/07/01 03:23:37;;;;;;;3.53;1.57;;;28.00;68.20;;;;;;5045024;28;20557;-81
2022/07/01 03:26:08;;;;;;;3.10;1.50;;;28.00;68.20;;;;;;5047824;28;20495;-78
2022/07/01 03:28:37;;;;;;;2.60;1.90;;;28.00;68.20;;;;;;5048908;28;20443;-78
2022/07/01 03:31:12;;;;;;;2.33;1.63;;;28.00;68.20;;;;;;5051334;28;20463;-78
2022/07/01 03:33:41;;;;;;;2.03;1.50;;;28.00;68.20;;;;;;5047440;28;20443;-79
2022/07/01 03:36:09;;;;;;;1.63;1.47;;;28.00;68.20;;;;;;5046915;28;20540;-79
2022/07/01 03:38:37;;;;;;;2.07;1.50;;;27.90;68.20;;;;;;5038737;28;20476;-81
2022/07/01 03:41:11;;;;;;;2.00;1.30;;;27.90;68.20;;;;;;5035097;28;20479;-78
2022/07/01 03:43:40;;;;;;;2.80;1.77;;;27.90;68.20;;;;;;5044812;28;20928;-77
2022/07/01 03:46:08;;;;;;;1.40;0.90;;;27.90;68.20;;;;;;5047608;28;20544;-79
2022/07/01 03:48:37;;;;;;;1.67;1.40;;;27.90;68.30;;;;;;5049393;28;20494;-78
2022/07/01 03:51:09;;;;;;;2.10;1.47;;;27.90;68.20;;;;;;5046189;28;20453;-78
2022/07/01 03:56:23;;;;;;;1.50;1.40;;;27.90;68.30;;;;;;5039762;28;20809;-80
2022/07/01 03:58:51;;;;;;;1.53;1.33;;;27.90;68.30;;;;;;5048600;28;20983;-79
2022/07/01 04:01:20;;;;;;;1.30;1.20;;;27.90;68.30;;;;;;5036861;28;21025;-78
2022/07/01 04:03:50;;;;;;;1.60;1.50;;;27.90;68.30;;;;;;5019270;28;20522;-79
2022/07/01 04:06:19;;;;;;;1.60;1.20;;;27.90;68.30;;;;;;5039499;28;20485;-80
2022/07/01 04:08:48;;;;;;;2.00;1.50;;;27.90;68.30;;;;;;5039870;28;20495;-77
2022/07/01 04:11:17;;;;;;;1.67;1.53;;;27.90;68.40;;;;;;5034502;28;20484;-79
2022/07/01 04:13:50;;;;;;;1.70;1.10;;;27.90;68.30;;;;;;5040573;28;20483;-77
2022/07/01 04:16:18;;;;;;;1.60;1.37;;;27.80;68.30;;;;;;5038043;28;20608;-79
2022/07/01 04:18:47;;;;;;;2.07;1.33;;;27.80;68.30;;;;;;5034897;28;20448;-77
2022/07/01 04:24:06;;;;;;;1.50;1.10;;;27.80;68.30;;;;;;5032887;28;20509;-78
2022/07/01 04:26:34;;;;;;;2.50;1.40;;;27.80;68.30;;;;;;5031775;28;20497;-78
2022/07/01 04:29:05;;;;;;;1.63;1.20;;;27.80;68.30;;;;;;5032315;28;20456;-77
2022/07/01 04:31:34;;;;;;;1.30;1.17;;;27.80;68.30;;;;;;5031073;28;20458;-79
2022/07/01 04:34:02;;;;;;;1.40;0.97;;;27.80;68.20;;;;;;5049563;28;20447;-77
2022/07/01 04:36:32;;;;;;;2.40;1.07;;;27.80;68.20;;;;;;5043514;28;20452;-77
2022/07/01 04:39:00;;;;;;;1.40;1.07;;;27.80;68.20;;;;;;5041699;28;20548;-79
2022/07/01 04:44:14;;;;;;;1.30;1.20;;;27.80;68.30;;;;;;5040712;28;20516;-79
2022/07/01 04:46:42;;;;;;;2.67;1.20;;;27.80;68.30;;;;;;5028154;28;20460;-78
2022/07/01 04:49:11;;;;;;;1.60;1.30;;;27.80;68.30;;;;;;5033463;28;20553;-79
2022/07/01 04:51:40;;;;;;;1.73;1.50;;;27.80;68.10;;;;;;5026957;28;20476;-79
2022/07/01 04:54:09;;;;;;;2.20;1.40;;;27.70;67.30;;;;;;5028780;28;20919;-78
2022/07/01 04:56:38;;;;;;;1.80;1.20;;;27.70;66.90;;;;;;5030310;28;20533;-77
2022/07/01 04:59:12;;;;;;;1.50;1.23;;;27.70;67.30;;;;;;5030356;28;20455;-77
2022/07/01 05:01:40;;;;;;;1.40;1.27;;;27.70;66.70;;;;;;5029820;28;20861;-80
2022/07/01 05:04:08;;;;;;;1.83;0.93;;;27.70;66.20;;;;;;5033733;28;20871;-78
2022/07/01 05:06:37;;;;;;;1.60;1.20;;;27.70;66.90;;;;;;5018027;28;20494;-78
2022/07/01 05:09:07;;;;;;;2.00;1.23;;;27.70;67.20;;;;;;5043511;28;20447;-79
2022/07/01 05:11:35;;;;;;;1.63;1.10;;;27.70;67.10;;;;;;5033470;28;20474;-80
2022/07/01 05:14:03;;;;;;;1.80;1.40;;;27.70;66.70;;;;;;5034959;28;20498;-79
2022/07/01 05:16:31;;;;;;;2.43;1.30;;;27.70;66.40;;;;;;5030979;28;20534;-77
2022/07/01 05:21:58;;;;;;;1.90;1.20;;;27.60;65.90;;;;;;5029438;28;20495;-77
2022/07/01 05:24:30;;;;;;;1.50;1.37;;;27.50;65.70;;;;;;5022049;28;20467;-78
2022/07/01 05:27:00;;;;;;;1.50;1.40;;;27.50;65.20;;;;;;5028705;28;20498;-79
2022/07/01 05:29:28;;;;;;;2.07;1.40;;;27.40;64.80;;;;;;5031413;28;20496;-80
2022/07/01 05:31:57;;;;;;;2.40;1.90;;;27.40;64.10;;;;;;5030141;28;20463;-79
2022/07/01 05:34:25;;;;;;;1.83;1.57;;;27.40;63.80;;;;;;5029042;28;20486;-79
2022/07/01 05:36:54;;;;;;;1.60;1.50;;;27.40;63.30;;;;;;5031943;28;20924;-77
2022/07/01 05:39:22;;;;;;;1.80;1.40;;;27.40;63.20;;;;;;5027969;28;20559;-78
2022/07/01 05:41:51;;;;;;;3.37;1.70;;;27.40;63.30;;;;;;5030912;28;20518;-78
2022/07/01 05:44:21;;;;;;;1.77;1.30;;;27.30;62.90;;;;;;5038551;28;20450;-79
2022/07/01 05:46:49;;;;;;;2.63;1.53;;;27.30;63.30;;;;;;5050213;28;20463;-79
2022/07/01 05:49:18;;;;;;;1.80;1.70;;;27.40;63.40;;;;;;5033157;28;20502;-80
2022/07/01 05:51:46;;;;;;;1.27;1.13;;;27.40;63.50;;;;;;5038037;28;20489;-78
2022/07/01 05:54:15;;;;;;;3.20;1.70;;;27.40;63.60;;;;;;5041667;28;20535;-78
2022/07/01 05:56:43;;;;;;;3.93;1.73;;;27.40;63.80;;;;;;5023679;28;20449;-78
2022/07/01 05:59:14;;;;;;;2.10;1.70;;;27.40;63.90;;;;;;5045859;28;20992;-78
2022/07/01 06:01:42;;;;;;;2.03;1.60;;;27.50;64.00;;;;;;5043509;28;20458;-77
2022/07/01 06:04:10;;;;;;;2.33;1.77;;;27.50;64.00;;;;;;5046508;28;20520;-78
2022/07/01 06:06:39;;;;;;;2.37;1.50;;;27.50;64.10;;;;;;5033501;28;20444;-78
2022/07/01 06:09:07;;;;;;;1.60;1.50;;;27.50;64.10;;;;;;5027944;28;20451;-78
2022/07/01 06:11:35;;;;;;;2.07;1.87;;;27.50;64.20;;;;;;5020356;28;21048;-78
2022/07/01 06:14:03;;;;;;;4.37;1.90;;;27.50;64.50;;;;;;5024554;28;20464;-76
2022/07/01 06:16:33;;;;;;;2.33;1.10;;;27.50;65.20;;;;;;5020179;28;20486;-78
2022/07/01 06:19:02;;;;;;;1.73;1.47;;;27.50;65.50;;;;;;5028994;28;20555;-79
2022/07/01 06:21:30;;;;;;;3.23;1.90;;;27.50;65.50;;;;;;5040114;28;20455;-80
2022/07/01 06:23:58;;;;;;;1.63;1.50;;;27.50;65.70;;;;;;5016870;28;21318;-77
2022/07/01 06:26:27;;;;;;;2.53;1.83;;;27.50;65.60;;;;;;5021722;28;20460;-78
2022/07/01 06:28:55;;;;;;;1.90;1.70;;;27.60;65.40;;;;;;5041503;28;20533;-78
2022/07/01 06:31:24;;;;;;;2.03;1.60;;;27.60;65.50;;;;;;5031089;28;20481;-78
2022/07/01 06:33:54;;;;;;;3.20;1.30;;;27.60;65.40;;;;;;5037390;28;20483;-78
2022/07/01 06:36:22;;;;;;;2.70;1.30;;;27.60;65.40;;;;;;5043411;28;21014;-78
2022/07/01 06:38:50;;;;;;;1.60;1.50;;;27.60;65.30;;;;;;5043601;28;20450;-77
2022/07/01 06:41:28;;;;;;;3.60;1.57;;;27.60;65.40;;;;;;5046714;28;20454;-78
2022/07/01 06:43:56;;;;;;;1.40;1.30;;;27.60;65.20;;;;;;5030366;28;20485;-77
2022/07/01 06:46:25;;;;;;;1.30;1.20;;;27.60;65.00;;;;;;5030907;28;21161;-78
2022/07/01 06:48:55;;;;;;;1.73;1.37;;;27.60;65.10;;;;;;5037152;28;20835;-78
2022/07/01 06:51:24;;;;;;;1.30;1.20;;;27.60;65.00;;;;;;5046071;28;20838;-77
2022/07/01 06:53:52;;;;;;;1.90;1.20;;;27.70;64.90;;;;;;5044426;28;20451;-77
2022/07/01 06:56:21;;;;;;;2.27;1.57;;;27.70;64.80;;;;;;5044056;28;20474;-79
2022/07/01 06:58:49;;;;;;;2.20;1.47;;;27.70;64.70;;;;;;5043658;28;20538;-79
2022/07/01 07:01:17;;;;;;;1.47;1.30;;;27.70;64.60;;;;;;5045492;28;20488;-78
2022/07/01 07:03:45;;;;;;;1.60;1.23;;;27.70;64.70;;;;;;5021506;28;20472;-78
2022/07/01 07:06:15;;;;;;;1.47;1.20;;;27.70;64.60;;;;;;5041054;28;20458;-77
2022/07/01 07:08:43;;;;;;;1.60;1.27;;;27.70;64.60;;;;;;5041141;28;20540;-79
2022/07/01 07:11:14;;;;;;;1.57;1.27;;;27.70;64.50;;;;;;5041279;28;20524;-78
2022/07/01 07:13:43;;;;;;;2.20;1.60;;;27.70;64.50;;;;;;5040314;28;20462;-77
2022/07/01 07:16:11;;;;;;;2.90;1.47;;;27.70;64.40;;;;;;5036284;28;20483;-77
2022/07/01 07:18:39;;;;;;;1.23;1.07;;;27.70;64.40;;;;;;5040291;28;20483;-77
2022/07/01 07:21:10;;;;;;;1.47;1.20;;;27.80;64.30;;;;;;5046022;28;20504;-78
2022/07/01 07:23:41;;;;;;;1.40;1.10;;;27.80;64.30;;;;;;5038466;28;20480;-78
2022/07/01 07:26:09;;;;;;;1.63;1.00;;;27.80;64.20;;;;;;5040790;28;20530;-78
2022/07/01 07:28:38;;;;;;;1.20;1.00;;;27.80;64.10;;;;;;5046128;28;20457;-79
2022/07/01 07:31:09;;;;;;;1.20;1.00;;;27.80;64.20;;;;;;5044704;28;20504;-79
2022/07/01 07:33:37;;;;;;;2.50;1.10;;;27.80;64.20;;;;;;5041265;28;20557;-79
2022/07/01 07:36:08;;;;;;;1.10;0.70;;;27.80;64.30;;;;;;5044434;28;20488;-78
2022/07/01 07:38:38;;;;;;;3.67;0.90;;;27.80;64.20;;;;;;5023821;28;20470;-79
2022/07/01 07:41:10;;;;;;;1.30;0.80;;;27.80;64.20;;;;;;5038423;28;20985;-79
2022/07/01 07:43:39;;;;;;;1.30;1.00;;;27.80;64.20;;;;;;5044007;28;20475;-79
2022/07/01 07:46:10;;;;;;;1.30;1.10;;;27.80;64.20;;;;;;5038697;28;20458;-77
2022/07/01 07:48:38;;;;;;;1.40;0.93;;;27.80;64.10;;;;;;5029826;28;20467;-79
2022/07/01 07:51:16;;;;;;;1.47;1.00;;;27.80;64.20;;;;;;5035374;28;20968;-79
2022/07/01 07:53:52;;;;;;;1.20;0.80;;;27.80;64.00;;;;;;5023836;28;20473;-78
2022/07/01 07:56:22;;;;;;;2.27;1.00;;;27.90;64.00;;;;;;5040084;28;20864;-78
2022/07/01 07:58:50;;;;;;;1.00;0.70;;;27.90;64.00;;;;;;5042001;28;20440;-79
2022/07/01 08:01:18;;;;;;;1.00;0.60;;;27.90;64.00;;;;;;5044197;28;20517;-77
2022/07/01 08:03:47;;;;;;;1.20;0.87;;;27.90;64.00;;;;;;5039443;28;20884;-77
2022/07/01 08:06:15;;;;;;;1.53;0.60;;;27.90;64.00;;;;;;5045548;28;20451;-78
2022/07/01 08:08:43;;;;;;;1.20;0.60;;;27.80;63.90;;;;;;5038611;28;20457;-79
2022/07/01 08:11:12;;;;;;;1.10;0.80;;;27.90;63.80;;;;;;5037083;28;20454;-78
2022/07/01 08:13:41;;;;;;;1.33;0.60;;;27.90;63.80;;;;;;5045040;28;20996;-79
2022/07/01 08:16:13;;;;;;;2.40;0.87;;;27.90;63.80;;;;;;5043999;28;20897;-77
2022/07/01 08:18:42;;;;;;;1.00;0.63;;;27.90;63.70;;;;;;5039488;28;20452;-76
2022/07/01 08:21:10;;;;;;;1.00;0.70;;;27.90;63.70;;;;;;5041251;28;20933;-75
2022/07/01 08:23:38;;;;;;;1.20;0.90;;;27.90;63.50;;;;;;5044545;28;20603;-80
2022/07/01 08:26:14;;;;;;;2.37;0.80;;;27.90;63.30;;;;;;5021407;28;20533;-79
2022/07/01 08:28:44;;;;;;;1.00;0.70;;;27.90;63.40;;;;;;5037584;28;20937;-80
2022/07/01 08:31:13;;;;;;;1.33;0.70;;;27.90;63.50;;;;;;5027771;28;20459;-80
2022/07/01 08:33:42;;;;;;;1.00;0.50;;;27.90;63.40;;;;;;5034517;28;20471;-80
2022/07/01 08:36:13;;;;;;;1.83;0.90;;;27.90;63.40;;;;;;5032178;28;20453;-77
2022/07/01 08:38:42;;;;;;;1.40;0.87;;;27.90;63.50;;;;;;5026067;28;20527;-79
2022/07/01 08:41:10;;;;;;;1.23;0.73;;;27.90;63.40;;;;;;5035002;28;20452;-80
2022/07/01 08:43:39;;;;;;;0.90;0.60;;;27.90;63.40;;;;;;5043113;28;20492;-80
2022/07/01 08:46:12;;;;;;;0.97;0.60;;;27.90;63.40;;;;;;5044662;28;20555;-79
2022/07/01 08:48:43;;;;;;;6.53;0.77;;;27.90;63.40;;;;;;5041940;28;20491;-80
2022/07/01 08:51:11;;;;;;;0.90;0.53;;;27.90;63.30;;;;;;5041616;28;20448;-79
2022/07/01 08:53:40;;;;;;;3.33;1.00;;;27.90;63.20;;;;;;5020232;28;20464;-80
2022/07/01 08:58:57;;;;;;;3.33;0.73;;;27.90;63.30;;;;;;5035045;28;20448;-80
2022/07/01 09:01:28;;;;;;;2.50;0.80;;;28.00;63.10;;;;;;5044616;28;20458;-79
2022/07/01 09:04:08;;;;;;;6.67;0.73;;;28.00;63.10;;;;;;5037968;28;20987;-79
2022/07/01 09:06:36;;;;;;;2.17;0.80;;;28.00;63.00;;;;;;5042897;28;20576;-79
2022/07/01 09:09:12;;;;;;;2.93;1.00;;;28.00;63.10;;;;;;5038216;28;20505;-79
2022/07/01 09:11:46;;;;;;;1.60;1.10;;;28.00;63.70;;;;;;5030019;28;20494;-81
2022/07/01 09:14:18;;;;;;;2.33;1.07;;;27.90;63.50;;;;;;5032064;28;20522;-80
2022/07/01 09:16:49;;;;;;;2.07;0.80;;;27.90;62.70;;;;;;5018171;28;20484;-77
2022/07/01 09:19:20;;;;;;;1.87;1.00;;;27.90;60.50;;;;;;5043364;28;20444;-81
2022/07/01 09:21:50;;;;;;;2.83;0.63;;;27.80;63.10;;;;;;5037993;28;20537;-79
2022/07/01 09:24:27;;;;;;;3.37;0.87;;;27.70;60.40;;;;;;5037553;28;20985;-81
2022/07/01 09:26:57;;;;;;;2.70;0.87;;;27.80;62.90;;;;;;5042119;28;20487;-81
2022/07/01 09:29:32;;;;;;;1.10;0.70;;;27.70;62.50;;;;;;5025316;28;20459;-82
2022/07/01 09:32:04;;;;;;;4.70;1.00;;;27.60;61.20;;;;;;5040871;28;20451;-80
2022/07/01 09:34:36;;;;;;;1.10;0.77;;;27.50;62.90;;;;;;5040339;28;20927;-80
2022/07/01 09:37:05;;;;;;;4.00;0.93;;;27.40;63.00;;;;;;5026156;28;20448;-82
2022/07/01 09:39:44;;;;;;;1.53;0.70;;;27.40;63.10;;;;;;5036378;28;20462;-80
2022/07/01 09:42:13;;;;;;;1.47;0.83;;;27.40;62.80;;;;;;5044880;28;20458;-81
2022/07/01 09:44:54;;;;;;;1.60;0.83;;;27.50;62.60;;;;;;5030026;28;20518;-82
2022/07/01 09:47:32;;;;;;;0.90;0.50;;;27.50;63.00;;;;;;5052423;28;20453;-81
2022/07/01 09:50:01;;;;;;;1.33;0.90;;;27.50;62.80;;;;;;5047795;28;20484;-79
2022/07/01 09:52:29;;;;;;;1.40;0.70;;;27.50;62.80;;;;;;5033428;28;20477;-78
2022/07/01 09:55:05;;;;;;;2.13;0.60;;;27.50;62.50;;;;;;5037310;28;20470;-82
2022/07/01 09:57:34;;;;;;;7.83;1.10;;;27.50;62.40;;;;;;5042201;28;20530;-80
2022/07/01 10:00:04;;;;;;;2.07;0.50;;;27.50;62.50;;;;;;5041966;28;20442;-80
2022/07/01 10:02:35;;;;;;;1.10;0.40;;;27.50;62.50;;;;;;5042802;28;20452;-79
2022/07/01 10:05:08;;;;;;;1.20;0.57;;;27.50;62.00;;;;;;5014713;28;20505;-79
2022/07/01 10:07:46;;;;;;;1.50;0.50;;;27.50;62.30;;;;;;5026996;28;20454;-82
2022/07/01 10:10:28;;;;;;;1.20;0.67;;;27.50;62.20;;;;;;5045846;28;20842;-79
2022/07/01 10:12:57;;;;;;;1.77;0.60;;;27.40;62.60;;;;;;5036567;28;20466;-80
2022/07/01 10:15:27;;;;;;;1.17;0.60;;;27.40;62.40;;;;;;5041341;28;20515;-79
2022/07/01 10:17:57;;;;;;;2.07;0.73;;;27.30;62.50;;;;;;5044471;28;20449;-80
2022/07/01 10:20:28;;;;;;;1.83;0.70;;;27.30;62.60;;;;;;5047015;28;20543;-79
2022/07/01 10:23:04;;;;;;;2.33;0.60;;;27.40;62.40;;;;;;5041899;28;20483;-81
2022/07/01 10:25:43;;;;;;;1.97;0.80;;;27.40;62.40;;;;;;5043825;28;20527;-78
2022/07/01 10:28:21;;;;;;;3.27;0.50;;;27.40;62.40;;;;;;5024865;28;20510;-79
2022/07/01 10:31:01;;;;;;;2.23;0.73;;;27.30;62.40;;;;;;5028696;28;20528;-80
2022/07/01 10:33:41;;;;;;;2.73;1.10;;;27.30;62.70;;;;;;5006794;28;20464;-79
2022/07/01 10:36:26;;;;;;;1.17;0.60;;;27.30;63.00;;;;;;5025861;28;20465;-79
2022/07/01 10:39:17;;;;;;;2.20;1.10;;;27.20;63.50;;;;;;5030375;28;20926;-79
2022/07/01 10:42:04;;;;;;;2.87;1.00;;;27.20;63.70;;;;;;5028705;28;20467;-78
2022/07/01 10:45:07;;;;;;;3.20;1.03;;;27.40;63.60;;;;;;5031742;28;20481;-79
2022/07/01 10:47:37;;;;;;;3.83;1.00;;;27.50;63.70;;;;;;5029731;28;21037;-80
2022/07/01 10:50:12;;;;;;;2.60;1.03;;;27.60;63.40;;;;;;5017676;28;20496;-79
2022/07/01 10:52:59;;;;;;;2.63;1.20;;;27.70;63.60;;;;;;5024061;28;20926;-81
2022/07/01 10:55:37;;;;;;;2.70;1.67;;;27.70;62.70;;;;;;5028164;28;20877;-80
2022/07/01 10:58:05;;;;;;;3.57;1.40;;;27.60;62.90;;;;;;5030457;28;20450;-78
2022/07/01 11:00:35;;;;;;;2.37;1.27;;;27.40;63.50;;;;;;5025170;28;20830;-78
2022/07/01 11:03:23;;;;;;;1.87;1.33;;;27.20;63.90;;;;;;5009288;28;20970;-81
2022/07/01 11:05:55;;;;;;;2.10;1.33;;;27.00;63.70;;;;;;5033363;28;20483;-78
2022/07/01 11:08:24;;;;;;;1.57;0.93;;;26.90;63.80;;;;;;5026733;28;20457;-78
2022/07/01 11:11:04;;;;;;;2.00;1.10;;;26.90;63.50;;;;;;5030490;28;20969;-78
2022/07/01 11:13:40;;;;;;;1.73;0.83;;;26.90;63.50;;;;;;5030652;28;20891;-78
2022/07/01 11:16:17;;;;;;;1.40;0.70;;;26.80;63.70;;;;;;5029530;28;20495;-79
2022/07/01 11:18:49;;;;;;;4.50;1.03;;;26.80;63.50;;;;;;5030291;28;20512;-80
2022/07/01 11:21:21;;;;;;;2.67;0.67;;;26.80;63.50;;;;;;5027564;28;20467;-79
2022/07/01 11:23:54;;;;;;;1.67;0.70;;;26.80;63.40;;;;;;5028158;28;20466;-81
2022/07/01 11:26:23;;;;;;;4.43;1.00;;;26.80;63.20;;;;;;5033553;28;20564;-80
2022/07/01 11:28:52;;;;;;;3.17;1.10;;;26.90;62.80;;;;;;5029796;28;20473;-82
2022/07/01 11:31:31;;;;;;;1.80;0.90;;;27.00;62.90;;;;;;5026925;28;20471;-78
2022/07/01 11:33:59;;;;;;;4.40;0.80;;;27.00;62.60;;;;;;5028511;28;20512;-79
2022/07/01 11:39:23;;;;;;;1.00;0.50;;;27.00;62.50;;;;;;5018218;28;20464;-78
2022/07/01 11:41:59;;;;;;;4.40;0.77;;;27.10;62.50;;;;;;5024509;28;20468;-80
2022/07/01 11:44:34;;;;;;;2.20;0.80;;;27.10;62.20;;;;;;5032923;28;20461;-78
2022/07/01 11:47:04;;;;;;;1.10;0.70;;;27.10;62.30;;;;;;5043925;28;20988;-79
2022/07/01 11:49:33;;;;;;;1.83;0.73;;;27.20;62.20;;;;;;5039502;28;20515;-80
2022/07/01 11:52:05;;;;;;;1.20;0.70;;;27.20;62.00;;;;;;5032686;28;20494;-80
2022/07/01 11:54:37;;;;;;;1.40;0.83;;;27.20;61.80;;;;;;5026772;28;20466;-78
2022/07/01 11:57:10;;;;;;;3.00;1.00;;;27.30;61.70;;;;;;5032294;28;20476;-79
2022/07/01 11:59:39;;;;;;;2.23;0.70;;;27.40;62.00;;;;;;5044729;28;20945;-79
2022/07/01 12:02:10;;;;;;;1.20;0.70;;;27.40;61.70;;;;;;5045055;28;20462;-79
2022/07/01 12:04:39;;;;;;;1.20;0.50;;;27.40;61.70;;;;;;5037983;28;20465;-79
2022/07/01 12:07:11;;;;;;;1.27;0.50;;;27.40;61.70;;;;;;5042240;28;20783;-80
2022/07/01 12:09:39;;;;;;;1.40;1.07;;;27.40;61.70;;;;;;5048735;28;20563;-81
2022/07/01 12:12:15;;;;;;;1.30;0.87;;;27.40;61.50;;;;;;5045697;28;20454;-79
2022/07/01 12:14:51;;;;;;;1.70;0.90;;;27.40;61.50;;;;;;5047630;28;20474;-80
2022/07/01 12:17:20;;;;;;;1.77;0.60;;;27.40;61.90;;;;;;5039355;28;20578;-79
2022/07/01 12:19:50;;;;;;;1.00;0.60;;;27.50;60.30;;;;;;5042662;28;20536;-78
2022/07/01 12:22:23;;;;;;;1.20;0.67;;;27.50;61.10;;;;;;5041239;28;20447;-80
2022/07/01 12:24:52;;;;;;;1.60;0.67;;;27.40;61.40;;;;;;5032848;28;20533;-79
2022/07/01 12:27:23;;;;;;;1.40;0.80;;;27.30;61.50;;;;;;5042931;28;20577;-83
2022/07/01 12:29:54;;;;;;;1.30;0.50;;;27.30;61.60;;;;;;5038116;28;20477;-80
2022/07/01 12:32:23;;;;;;;1.23;1.00;;;27.30;61.60;;;;;;5036839;28;20463;-78
2022/07/01 12:34:54;;;;;;;3.20;0.70;;;27.20;61.60;;;;;;5032622;28;21022;-79
2022/07/01 12:37:31;;;;;;;1.60;0.70;;;27.10;61.70;;;;;;5040578;28;20461;-79
2022/07/01 12:40:01;;;;;;;1.77;0.40;;;27.20;61.80;;;;;;5031746;28;20480;-80
2022/07/01 12:42:31;;;;;;;1.93;0.80;;;27.20;61.90;;;;;;5030394;28;20512;-78
2022/07/01 12:45:01;;;;;;;1.73;1.30;;;27.10;62.00;;;;;;5035071;28;20836;-81
2022/07/01 12:47:31;;;;;;;1.00;0.80;;;27.20;62.00;;;;;;5046942;28;20519;-78
2022/07/01 12:50:14;;;;;;;2.13;0.80;;;27.40;61.60;;;;;;5045003;28;20974;-78
2022/07/01 12:52:46;;;;;;;3.33;0.80;;;27.40;61.70;;;;;;5027339;28;20491;-79
2022/07/01 12:55:21;;;;;;;2.67;0.80;;;27.40;61.00;;;;;;5036013;28;20465;-78
2022/07/01 12:57:50;;;;;;;1.37;0.80;;;27.40;61.30;;;;;;5040527;28;20441;-78
2022/07/01 13:00:20;;;;;;;0.90;0.60;;;27.50;61.10;;;;;;5047394;28;20790;-79
2022/07/01 13:02:52;;;;;;;2.13;0.90;;;27.50;61.70;;;;;;5041322;28;20457;-79
2022/07/01 13:05:20;;;;;;;2.13;1.20;;;27.50;61.20;;;;;;5031222;28;20489;-79
2022/07/01 13:07:49;;;;;;;5.10;2.83;;;27.40;61.50;;;;;;5032542;28;20532;-79
2022/07/01 13:10:19;;;;;;;5.97;4.90;;;27.40;60.70;;;;;;5026802;28;20565;-81
2022/07/01 13:12:47;;;;;;;4.83;4.20;;;27.40;61.90;;;;;;5033679;28;20442;-79
2022/07/01 13:15:17;;;;;;;7.60;4.80;;;27.40;62.30;;;;;;5022531;28;20499;-82
2022/07/01 13:17:46;;;;;;;3.97;3.37;;;27.60;61.60;;;;;;5026922;28;21080;-79
2022/07/01 13:20:15;;;;;;;5.40;1.70;;;27.60;60.30;;;;;;5026040;28;20464;-78
2022/07/01 13:22:44;;;;;;;1.83;1.10;;;27.30;59.40;;;;;;5028592;28;20459;-80